Terminal Aerodrome Forecast
Issued by NWS Wilmington, OH

Home | Current Version | Previous Version | Text Only | Print | Product List | Glossary On
Versions: 1 2 3 4 5 6 7 8 9 10 11 12 13 14 15 16 17 18 19 20 21 22 23 24 25 26 27 28 29 30 31
000
FTUS41 KILN 211500 AAB
TAFCVG
TAF AMD
KCVG 211501Z 2115/2218 20007KT P6SM VCSH SCT050 OVC100
      TEMPO 2115/2116 5SM -TSRA BKN040CB
     FM211700 23008KT P6SM FEW050 BKN100
     FM220000 22005KT P6SM SCT050 BKN150
     FM221100 22005KT P6SM BKN040=

USA.gov is the U.S. government's official web portal to all federal, state and local government web resources and services.